sensor_id;sensor_type;location;lat;lon;timestamp;P1;durP1;ratioP1;P2;durP2;ratioP2
58950;SDS011;44730;53.158;6.398;2023-07-31T00:01:54;4.00;;;1.48;;
58950;SDS011;44730;53.158;6.398;2023-07-31T00:04:20;3.63;;;0.65;;
58950;SDS011;44730;53.158;6.398;2023-07-31T00:06:46;0.28;;;0.28;;
58950;SDS011;44730;53.158;6.398;2023-07-31T00:09:12;2.25;;;0.90;;
58950;SDS011;44730;53.158;6.398;2023-07-31T00:11:38;0.47;;;0.47;;
58950;SDS011;44730;53.158;6.398;2023-07-31T00:14:04;0.43;;;0.43;;
58950;SDS011;44730;53.158;6.398;2023-07-31T00:16:30;1.45;;;0.68;;
58950;SDS011;44730;53.158;6.398;2023-07-31T00:18:56;0.80;;;0.60;;
58950;SDS011;44730;53.158;6.398;2023-07-31T00:21:24;0.22;;;0.17;;
58950;SDS011;44730;53.158;6.398;2023-07-31T00:23:50;0.85;;;0.60;;
58950;SDS011;44730;53.158;6.398;2023-07-31T00:26:16;1.00;;;0.75;;
58950;SDS011;44730;53.158;6.398;2023-07-31T00:28:42;0.20;;;0.20;;
58950;SDS011;44730;53.158;6.398;2023-07-31T00:31:08;0.25;;;0.25;;
58950;SDS011;44730;53.158;6.398;2023-07-31T00:33:34;0.60;;;0.60;;
58950;SDS011;44730;53.158;6.398;2023-07-31T00:36:01;0.30;;;0.30;;
58950;SDS011;44730;53.158;6.398;2023-07-31T00:38:27;0.80;;;0.60;;
58950;SDS011;44730;53.158;6.398;2023-07-31T00:40:54;0.30;;;0.30;;
58950;SDS011;44730;53.158;6.398;2023-07-31T00:43:20;0.43;;;0.43;;
58950;SDS011;44730;53.158;6.398;2023-07-31T00:45:46;0.38;;;0.38;;
58950;SDS011;44730;53.158;6.398;2023-07-31T00:48:12;0.38;;;0.38;;
58950;SDS011;44730;53.158;6.398;2023-07-31T00:50:38;0.65;;;0.65;;
58950;SDS011;44730;53.158;6.398;2023-07-31T00:53:04;0.45;;;0.38;;
58950;SDS011;44730;53.158;6.398;2023-07-31T00:55:31;0.90;;;0.45;;
58950;SDS011;44730;53.158;6.398;2023-07-31T00:57:57;0.30;;;0.30;;
58950;SDS011;44730;53.158;6.398;2023-07-31T01:00:23;0.30;;;0.30;;
58950;SDS011;44730;53.158;6.398;2023-07-31T01:02:49;0.80;;;0.43;;
58950;SDS011;44730;53.158;6.398;2023-07-31T01:05:17;0.10;;;0.10;;
58950;SDS011;44730;53.158;6.398;2023-07-31T01:10:50;0.30;;;0.30;;
58950;SDS011;44730;53.158;6.398;2023-07-31T01:13:16;0.13;;;0.13;;
58950;SDS011;44730;53.158;6.398;2023-07-31T01:15:43;0.15;;;0.15;;
58950;SDS011;44730;53.158;6.398;2023-07-31T01:18:09;0.35;;;0.35;;
58950;SDS011;44730;53.158;6.398;2023-07-31T01:20:35;0.00;;;0.00;;
58950;SDS011;44730;53.158;6.398;2023-07-31T01:23:13;0.68;;;0.40;;
58950;SDS011;44730;53.158;6.398;2023-07-31T01:28:18;0.40;;;0.38;;
58950;SDS011;44730;53.158;6.398;2023-07-31T01:30:47;1.17;;;0.80;;
58950;SDS011;44730;53.158;6.398;2023-07-31T01:33:16;0.00;;;0.00;;
58950;SDS011;44730;53.158;6.398;2023-07-31T01:35:47;0.30;;;0.30;;
58950;SDS011;44730;53.158;6.398;2023-07-31T01:38:14;0.00;;;0.00;;
58950;SDS011;44730;53.158;6.398;2023-07-31T01:40:43;0.25;;;0.25;;
58950;SDS011;44730;53.158;6.398;2023-07-31T01:43:09;0.22;;;0.22;;
58950;SDS011;44730;53.158;6.398;2023-07-31T01:45:35;0.00;;;0.00;;
58950;SDS011;44730;53.158;6.398;2023-07-31T01:48:01;0.00;;;0.00;;
58950;SDS011;44730;53.158;6.398;2023-07-31T01:50:27;0.30;;;0.30;;
58950;SDS011;44730;53.158;6.398;2023-07-31T01:52:53;0.00;;;0.00;;
58950;SDS011;44730;53.158;6.398;2023-07-31T01:55:19;0.00;;;0.00;;
58950;SDS011;44730;53.158;6.398;2023-07-31T01:57:45;0.20;;;0.20;;
58950;SDS011;44730;53.158;6.398;2023-07-31T02:00:11;0.00;;;0.00;;
58950;SDS011;44730;53.158;6.398;2023-07-31T02:02:38;0.30;;;0.30;;
58950;SDS011;44730;53.158;6.398;2023-07-31T02:05:04;0.25;;;0.25;;
58950;SDS011;44730;53.158;6.398;2023-07-31T02:07:30;0.00;;;0.00;;
58950;SDS011;44730;53.158;6.398;2023-07-31T02:09:56;0.10;;;0.00;;
58950;SDS011;44730;53.158;6.398;2023-07-31T02:12:22;0.05;;;0.05;;
58950;SDS011;44730;53.158;6.398;2023-07-31T02:14:49;0.38;;;0.15;;
58950;SDS011;44730;53.158;6.398;2023-07-31T02:17:15;0.28;;;0.10;;
58950;SDS011;44730;53.158;6.398;2023-07-31T02:19:41;0.57;;;0.30;;
58950;SDS011;44730;53.158;6.398;2023-07-31T02:22:07;0.00;;;0.00;;
58950;SDS011;44730;53.158;6.398;2023-07-31T02:24:33;0.60;;;0.40;;
58950;SDS011;44730;53.158;6.398;2023-07-31T02:26:59;0.17;;;0.17;;
58950;SDS011;44730;53.158;6.398;2023-07-31T02:29:25;0.10;;;0.10;;
58950;SDS011;44730;53.158;6.398;2023-07-31T02:31:51;0.28;;;0.25;;
58950;SDS011;44730;53.158;6.398;2023-07-31T02:34:17;0.10;;;0.10;;
58950;SDS011;44730;53.158;6.398;2023-07-31T02:36:44;0.20;;;0.20;;
58950;SDS011;44730;53.158;6.398;2023-07-31T02:39:10;0.00;;;0.00;;
58950;SDS011;44730;53.158;6.398;2023-07-31T02:41:36;0.10;;;0.10;;
58950;SDS011;44730;53.158;6.398;2023-07-31T02:44:02;0.00;;;0.00;;
58950;SDS011;44730;53.158;6.398;2023-07-31T02:46:28;0.00;;;0.00;;
58950;SDS011;44730;53.158;6.398;2023-07-31T02:48:55;0.10;;;0.10;;
58950;SDS011;44730;53.158;6.398;2023-07-31T02:51:21;0.13;;;0.13;;
58950;SDS011;44730;53.158;6.398;2023-07-31T02:53:47;0.00;;;0.00;;
58950;SDS011;44730;53.158;6.398;2023-07-31T02:56:14;0.00;;;0.00;;
58950;SDS011;44730;53.158;6.398;2023-07-31T02:58:40;0.03;;;0.03;;
58950;SDS011;44730;53.158;6.398;2023-07-31T03:01:07;0.00;;;0.00;;
58950;SDS011;44730;53.158;6.398;2023-07-31T03:03:33;0.32;;;0.30;;
58950;SDS011;44730;53.158;6.398;2023-07-31T03:05:59;0.03;;;0.03;;
58950;SDS011;44730;53.158;6.398;2023-07-31T03:08:26;0.00;;;0.00;;
58950;SDS011;44730;53.158;6.398;2023-07-31T03:10:52;0.10;;;0.10;;
58950;SDS011;44730;53.158;6.398;2023-07-31T03:13:18;0.00;;;0.00;;
58950;SDS011;44730;53.158;6.398;2023-07-31T03:15:44;0.00;;;0.00;;
58950;SDS011;44730;53.158;6.398;2023-07-31T03:18:10;0.00;;;0.00;;
58950;SDS011;44730;53.158;6.398;2023-07-31T03:20:36;0.20;;;0.20;;
58950;SDS011;44730;53.158;6.398;2023-07-31T03:23:02;0.00;;;0.00;;
58950;SDS011;44730;53.158;6.398;2023-07-31T03:25:28;0.38;;;0.13;;
58950;SDS011;44730;53.158;6.398;2023-07-31T03:27:55;1.45;;;0.43;;
58950;SDS011;44730;53.158;6.398;2023-07-31T03:30:21;0.00;;;0.00;;
58950;SDS011;44730;53.158;6.398;2023-07-31T03:32:47;0.00;;;0.00;;
58950;SDS011;44730;53.158;6.398;2023-07-31T03:35:13;0.00;;;0.00;;
58950;SDS011;44730;53.158;6.398;2023-07-31T03:37:39;0.45;;;0.20;;
58950;SDS011;44730;53.158;6.398;2023-07-31T03:40:05;0.45;;;0.20;;
58950;SDS011;44730;53.158;6.398;2023-07-31T03:42:33;0.00;;;0.00;;
58950;SDS011;44730;53.158;6.398;2023-07-31T03:44:59;0.20;;;0.20;;
58950;SDS011;44730;53.158;6.398;2023-07-31T03:47:26;0.00;;;0.00;;
58950;SDS011;44730;53.158;6.398;2023-07-31T03:49:52;0.20;;;0.20;;
58950;SDS011;44730;53.158;6.398;2023-07-31T03:52:18;0.00;;;0.00;;
58950;SDS011;44730;53.158;6.398;2023-07-31T03:54:44;0.10;;;0.10;;
58950;SDS011;44730;53.158;6.398;2023-07-31T03:57:11;0.00;;;0.00;;
58950;SDS011;44730;53.158;6.398;2023-07-31T03:59:37;0.05;;;0.05;;
58950;SDS011;44730;53.158;6.398;2023-07-31T04:02:04;0.00;;;0.00;;
58950;SDS011;44730;53.158;6.398;2023-07-31T04:04:30;0.00;;;0.00;;
58950;SDS011;44730;53.158;6.398;2023-07-31T04:06:56;0.00;;;0.00;;
58950;SDS011;44730;53.158;6.398;2023-07-31T04:09:22;0.25;;;0.17;;
58950;SDS011;44730;53.158;6.398;2023-07-31T04:11:48;0.10;;;0.10;;
58950;SDS011;44730;53.158;6.398;2023-07-31T04:14:14;0.00;;;0.00;;
58950;SDS011;44730;53.158;6.398;2023-07-31T04:16:40;0.28;;;0.28;;
58950;SDS011;44730;53.158;6.398;2023-07-31T04:19:06;0.10;;;0.10;;
58950;SDS011;44730;53.158;6.398;2023-07-31T04:21:33;0.20;;;0.10;;
58950;SDS011;44730;53.158;6.398;2023-07-31T04:23:59;0.17;;;0.17;;
58950;SDS011;44730;53.158;6.398;2023-07-31T04:26:25;0.47;;;0.47;;
58950;SDS011;44730;53.158;6.398;2023-07-31T04:28:51;0.00;;;0.00;;
58950;SDS011;44730;53.158;6.398;2023-07-31T04:31:17;0.10;;;0.10;;
58950;SDS011;44730;53.158;6.398;2023-07-31T04:33:43;0.10;;;0.10;;
58950;SDS011;44730;53.158;6.398;2023-07-31T04:36:09;0.22;;;0.15;;
58950;SDS011;44730;53.158;6.398;2023-07-31T04:38:35;0.32;;;0.15;;
58950;SDS011;44730;53.158;6.398;2023-07-31T04:41:02;0.00;;;0.00;;
58950;SDS011;44730;53.158;6.398;2023-07-31T04:43:28;0.52;;;0.52;;
58950;SDS011;44730;53.158;6.398;2023-07-31T04:45:55;0.00;;;0.00;;
58950;SDS011;44730;53.158;6.398;2023-07-31T04:48:21;0.70;;;0.20;;
58950;SDS011;44730;53.158;6.398;2023-07-31T04:50:47;0.20;;;0.20;;
58950;SDS011;44730;53.158;6.398;2023-07-31T04:53:13;0.00;;;0.00;;
58950;SDS011;44730;53.158;6.398;2023-07-31T04:55:39;0.00;;;0.00;;
58950;SDS011;44730;53.158;6.398;2023-07-31T04:58:06;0.03;;;0.03;;
58950;SDS011;44730;53.158;6.398;2023-07-31T05:00:32;0.00;;;0.00;;
58950;SDS011;44730;53.158;6.398;2023-07-31T05:02:58;0.00;;;0.00;;
58950;SDS011;44730;53.158;6.398;2023-07-31T05:05:24;0.00;;;0.00;;
58950;SDS011;44730;53.158;6.398;2023-07-31T05:07:50;0.25;;;0.00;;
58950;SDS011;44730;53.158;6.398;2023-07-31T05:10:17;0.05;;;0.05;;
58950;SDS011;44730;53.158;6.398;2023-07-31T05:12:44;0.20;;;0.20;;
58950;SDS011;44730;53.158;6.398;2023-07-31T05:15:16;0.00;;;0.00;;
58950;SDS011;44730;53.158;6.398;2023-07-31T05:17:42;0.00;;;0.00;;
58950;SDS011;44730;53.158;6.398;2023-07-31T05:20:08;0.08;;;0.08;;
58950;SDS011;44730;53.158;6.398;2023-07-31T05:22:35;0.10;;;0.10;;
58950;SDS011;44730;53.158;6.398;2023-07-31T05:25:01;0.00;;;0.00;;
58950;SDS011;44730;53.158;6.398;2023-07-31T05:27:27;0.10;;;0.10;;
58950;SDS011;44730;53.158;6.398;2023-07-31T05:29:54;0.20;;;0.20;;
58950;SDS011;44730;53.158;6.398;2023-07-31T05:32:20;0.45;;;0.28;;
58950;SDS011;44730;53.158;6.398;2023-07-31T05:34:47;0.10;;;0.10;;
58950;SDS011;44730;53.158;6.398;2023-07-31T05:37:13;0.22;;;0.13;;
58950;SDS011;44730;53.158;6.398;2023-07-31T05:39:39;0.10;;;0.10;;
58950;SDS011;44730;53.158;6.398;2023-07-31T05:42:05;0.08;;;0.08;;
58950;SDS011;44730;53.158;6.398;2023-07-31T05:44:32;0.10;;;0.10;;
58950;SDS011;44730;53.158;6.398;2023-07-31T05:46:58;0.00;;;0.00;;
58950;SDS011;44730;53.158;6.398;2023-07-31T05:49:25;0.40;;;0.40;;
58950;SDS011;44730;53.158;6.398;2023-07-31T05:51:51;0.10;;;0.10;;
58950;SDS011;44730;53.158;6.398;2023-07-31T05:54:17;0.22;;;0.20;;
58950;SDS011;44730;53.158;6.398;2023-07-31T05:56:43;0.63;;;0.57;;
58950;SDS011;44730;53.158;6.398;2023-07-31T05:59:11;0.10;;;0.10;;
58950;SDS011;44730;53.158;6.398;2023-07-31T06:01:38;0.03;;;0.03;;
58950;SDS011;44730;53.158;6.398;2023-07-31T06:04:04;0.45;;;0.22;;
58950;SDS011;44730;53.158;6.398;2023-07-31T06:06:31;0.25;;;0.25;;
58950;SDS011;44730;53.158;6.398;2023-07-31T06:08:57;0.22;;;0.22;;
58950;SDS011;44730;53.158;6.398;2023-07-31T06:11:23;0.00;;;0.00;;
58950;SDS011;44730;53.158;6.398;2023-07-31T06:13:49;0.22;;;0.22;;
58950;SDS011;44730;53.158;6.398;2023-07-31T06:16:15;0.38;;;0.38;;
58950;SDS011;44730;53.158;6.398;2023-07-31T06:18:42;0.68;;;0.40;;
58950;SDS011;44730;53.158;6.398;2023-07-31T06:21:08;1.42;;;0.75;;
58950;SDS011;44730;53.158;6.398;2023-07-31T06:23:35;1.30;;;0.73;;
58950;SDS011;44730;53.158;6.398;2023-07-31T06:26:01;0.88;;;0.88;;
58950;SDS011;44730;53.158;6.398;2023-07-31T06:28:31;2.70;;;0.65;;
58950;SDS011;44730;53.158;6.398;2023-07-31T06:30:57;0.90;;;0.88;;
58950;SDS011;44730;53.158;6.398;2023-07-31T06:33:23;0.85;;;0.52;;
58950;SDS011;44730;53.158;6.398;2023-07-31T06:35:50;2.63;;;1.15;;
58950;SDS011;44730;53.158;6.398;2023-07-31T06:38:19;0.73;;;0.68;;
58950;SDS011;44730;53.158;6.398;2023-07-31T06:40:45;1.10;;;0.93;;
58950;SDS011;44730;53.158;6.398;2023-07-31T06:43:12;7.32;;;0.93;;
58950;SDS011;44730;53.158;6.398;2023-07-31T06:45:38;1.60;;;0.85;;
58950;SDS011;44730;53.158;6.398;2023-07-31T06:48:04;0.57;;;0.55;;
58950;SDS011;44730;53.158;6.398;2023-07-31T06:50:31;0.98;;;0.88;;
58950;SDS011;44730;53.158;6.398;2023-07-31T06:52:57;0.88;;;0.88;;
58950;SDS011;44730;53.158;6.398;2023-07-31T06:55:23;1.80;;;1.13;;
58950;SDS011;44730;53.158;6.398;2023-07-31T06:57:51;1.85;;;1.17;;
58950;SDS011;44730;53.158;6.398;2023-07-31T07:00:17;1.33;;;0.90;;
58950;SDS011;44730;53.158;6.398;2023-07-31T07:02:44;0.30;;;0.30;;
58950;SDS011;44730;53.158;6.398;2023-07-31T07:05:12;1.10;;;1.08;;
58950;SDS011;44730;53.158;6.398;2023-07-31T07:07:39;3.42;;;0.70;;
58950;SDS011;44730;53.158;6.398;2023-07-31T07:10:05;0.65;;;0.65;;
58950;SDS011;44730;53.158;6.398;2023-07-31T07:12:31;1.77;;;0.90;;
58950;SDS011;44730;53.158;6.398;2023-07-31T07:14:59;3.08;;;0.55;;
58950;SDS011;44730;53.158;6.398;2023-07-31T07:17:28;2.10;;;0.95;;
58950;SDS011;44730;53.158;6.398;2023-07-31T07:19:56;0.50;;;0.47;;
58950;SDS011;44730;53.158;6.398;2023-07-31T07:22:23;0.73;;;0.65;;
58950;SDS011;44730;53.158;6.398;2023-07-31T07:24:49;1.38;;;1.10;;
58950;SDS011;44730;53.158;6.398;2023-07-31T07:27:15;1.48;;;0.73;;
58950;SDS011;44730;53.158;6.398;2023-07-31T07:29:41;1.23;;;1.13;;
58950;SDS011;44730;53.158;6.398;2023-07-31T07:32:07;1.10;;;0.98;;
58950;SDS011;44730;53.158;6.398;2023-07-31T07:34:33;0.15;;;0.13;;
58950;SDS011;44730;53.158;6.398;2023-07-31T07:36:59;0.22;;;0.22;;
58950;SDS011;44730;53.158;6.398;2023-07-31T07:39:26;1.70;;;0.88;;
58950;SDS011;44730;53.158;6.398;2023-07-31T07:41:52;0.82;;;0.82;;
58950;SDS011;44730;53.158;6.398;2023-07-31T07:44:19;1.45;;;0.65;;
58950;SDS011;44730;53.158;6.398;2023-07-31T07:46:45;0.47;;;0.47;;
58950;SDS011;44730;53.158;6.398;2023-07-31T07:49:11;0.73;;;0.65;;
58950;SDS011;44730;53.158;6.398;2023-07-31T07:51:38;0.10;;;0.05;;
58950;SDS011;44730;53.158;6.398;2023-07-31T07:54:04;0.63;;;0.32;;
58950;SDS011;44730;53.158;6.398;2023-07-31T07:56:30;0.88;;;0.88;;
58950;SDS011;44730;53.158;6.398;2023-07-31T07:58:56;0.10;;;0.10;;
58950;SDS011;44730;53.158;6.398;2023-07-31T08:01:22;0.22;;;0.22;;
58950;SDS011;44730;53.158;6.398;2023-07-31T08:03:49;0.50;;;0.38;;
58950;SDS011;44730;53.158;6.398;2023-07-31T08:06:15;0.40;;;0.40;;
58950;SDS011;44730;53.158;6.398;2023-07-31T08:08:42;0.10;;;0.10;;
58950;SDS011;44730;53.158;6.398;2023-07-31T08:11:08;0.28;;;0.25;;
58950;SDS011;44730;53.158;6.398;2023-07-31T08:13:34;0.00;;;0.00;;
58950;SDS011;44730;53.158;6.398;2023-07-31T08:16:02;0.20;;;0.20;;
58950;SDS011;44730;53.158;6.398;2023-07-31T08:18:28;0.15;;;0.15;;
58950;SDS011;44730;53.158;6.398;2023-07-31T08:20:55;0.00;;;0.00;;
58950;SDS011;44730;53.158;6.398;2023-07-31T08:23:21;0.40;;;0.35;;
58950;SDS011;44730;53.158;6.398;2023-07-31T08:25:48;0.10;;;0.10;;
58950;SDS011;44730;53.158;6.398;2023-07-31T08:28:15;0.05;;;0.05;;
58950;SDS011;44730;53.158;6.398;2023-07-31T08:30:42;0.10;;;0.10;;
58950;SDS011;44730;53.158;6.398;2023-07-31T08:33:08;0.10;;;0.10;;
58950;SDS011;44730;53.158;6.398;2023-07-31T08:35:34;0.10;;;0.10;;
58950;SDS011;44730;53.158;6.398;2023-07-31T08:38:00;0.03;;;0.03;;
58950;SDS011;44730;53.158;6.398;2023-07-31T08:40:26;0.00;;;0.00;;
58950;SDS011;44730;53.158;6.398;2023-07-31T08:42:53;0.20;;;0.10;;
58950;SDS011;44730;53.158;6.398;2023-07-31T08:45:21;0.00;;;0.00;;
58950;SDS011;44730;53.158;6.398;2023-07-31T08:47:49;0.05;;;0.05;;
58950;SDS011;44730;53.158;6.398;2023-07-31T08:50:16;0.05;;;0.05;;
58950;SDS011;44730;53.158;6.398;2023-07-31T08:52:43;0.05;;;0.05;;
58950;SDS011;44730;53.158;6.398;2023-07-31T08:55:09;0.10;;;0.10;;
58950;SDS011;44730;53.158;6.398;2023-07-31T08:57:36;0.00;;;0.00;;
58950;SDS011;44730;53.158;6.398;2023-07-31T09:00:03;0.00;;;0.00;;
58950;SDS011;44730;53.158;6.398;2023-07-31T09:02:55;0.00;;;0.00;;
58950;SDS011;44730;53.158;6.398;2023-07-31T09:05:19;0.73;;;0.43;;
58950;SDS011;44730;53.158;6.398;2023-07-31T09:07:47;0.00;;;0.00;;
58950;SDS011;44730;53.158;6.398;2023-07-31T09:10:13;0.00;;;0.00;;
58950;SDS011;44730;53.158;6.398;2023-07-31T09:12:40;0.00;;;0.00;;
58950;SDS011;44730;53.158;6.398;2023-07-31T09:15:06;0.25;;;0.25;;
58950;SDS011;44730;53.158;6.398;2023-07-31T09:17:34;0.98;;;0.10;;
58950;SDS011;44730;53.158;6.398;2023-07-31T09:20:17;0.05;;;0.05;;
58950;SDS011;44730;53.158;6.398;2023-07-31T09:22:44;0.10;;;0.10;;
58950;SDS011;44730;53.158;6.398;2023-07-31T09:25:14;0.00;;;0.00;;
58950;SDS011;44730;53.158;6.398;2023-07-31T09:27:48;0.00;;;0.00;;
58950;SDS011;44730;53.158;6.398;2023-07-31T09:30:15;0.08;;;0.08;;
58950;SDS011;44730;53.158;6.398;2023-07-31T09:32:42;0.00;;;0.00;;
58950;SDS011;44730;53.158;6.398;2023-07-31T09:37:50;0.38;;;0.10;;
58950;SDS011;44730;53.158;6.398;2023-07-31T09:40:50;0.05;;;0.05;;
58950;SDS011;44730;53.158;6.398;2023-07-31T09:43:10;0.05;;;0.05;;
58950;SDS011;44730;53.158;6.398;2023-07-31T09:45:37;0.00;;;0.00;;
58950;SDS011;44730;53.158;6.398;2023-07-31T09:48:03;0.17;;;0.17;;
58950;SDS011;44730;53.158;6.398;2023-07-31T09:50:34;0.10;;;0.10;;
58950;SDS011;44730;53.158;6.398;2023-07-31T09:53:02;0.00;;;0.00;;
58950;SDS011;44730;53.158;6.398;2023-07-31T09:55:28;0.00;;;0.00;;
58950;SDS011;44730;53.158;6.398;2023-07-31T09:57:55;0.10;;;0.10;;
58950;SDS011;44730;53.158;6.398;2023-07-31T10:00:24;0.03;;;0.03;;
58950;SDS011;44730;53.158;6.398;2023-07-31T10:02:52;0.00;;;0.00;;
58950;SDS011;44730;53.158;6.398;2023-07-31T10:05:19;0.00;;;0.00;;
58950;SDS011;44730;53.158;6.398;2023-07-31T10:07:51;0.05;;;0.05;;
58950;SDS011;44730;53.158;6.398;2023-07-31T10:10:18;0.00;;;0.00;;
58950;SDS011;44730;53.158;6.398;2023-07-31T10:12:45;0.00;;;0.00;;
58950;SDS011;44730;53.158;6.398;2023-07-31T10:15:12;0.00;;;0.00;;
58950;SDS011;44730;53.158;6.398;2023-07-31T10:17:39;0.00;;;0.00;;
58950;SDS011;44730;53.158;6.398;2023-07-31T10:20:06;0.00;;;0.00;;
58950;SDS011;44730;53.158;6.398;2023-07-31T10:22:32;0.00;;;0.00;;
58950;SDS011;44730;53.158;6.398;2023-07-31T10:24:59;0.00;;;0.00;;
58950;SDS011;44730;53.158;6.398;2023-07-31T10:27:26;0.00;;;0.00;;
58950;SDS011;44730;53.158;6.398;2023-07-31T10:29:52;0.00;;;0.00;;
58950;SDS011;44730;53.158;6.398;2023-07-31T10:32:20;0.08;;;0.05;;
58950;SDS011;44730;53.158;6.398;2023-07-31T10:34:46;0.00;;;0.00;;
58950;SDS011;44730;53.158;6.398;2023-07-31T10:37:19;0.00;;;0.00;;
58950;SDS011;44730;53.158;6.398;2023-07-31T10:42:13;0.00;;;0.00;;
58950;SDS011;44730;53.158;6.398;2023-07-31T10:44:49;0.00;;;0.00;;
58950;SDS011;44730;53.158;6.398;2023-07-31T10:47:15;0.00;;;0.00;;
58950;SDS011;44730;53.158;6.398;2023-07-31T10:49:44;0.15;;;0.15;;
58950;SDS011;44730;53.158;6.398;2023-07-31T10:52:10;0.08;;;0.08;;
58950;SDS011;44730;53.158;6.398;2023-07-31T10:54:39;0.00;;;0.00;;
58950;SDS011;44730;53.158;6.398;2023-07-31T10:57:21;0.00;;;0.00;;
58950;SDS011;44730;53.158;6.398;2023-07-31T10:59:48;0.22;;;0.20;;
58950;SDS011;44730;53.158;6.398;2023-07-31T11:02:27;0.20;;;0.10;;
58950;SDS011;44730;53.158;6.398;2023-07-31T11:05:08;0.00;;;0.00;;
58950;SDS011;44730;53.158;6.398;2023-07-31T11:07:48;0.22;;;0.22;;
58950;SDS011;44730;53.158;6.398;2023-07-31T11:10:17;0.00;;;0.00;;
58950;SDS011;44730;53.158;6.398;2023-07-31T11:12:44;0.10;;;0.10;;
58950;SDS011;44730;53.158;6.398;2023-07-31T11:15:11;0.70;;;0.25;;
58950;SDS011;44730;53.158;6.398;2023-07-31T11:17:38;0.00;;;0.00;;
58950;SDS011;44730;53.158;6.398;2023-07-31T11:20:05;0.00;;;0.00;;
58950;SDS011;44730;53.158;6.398;2023-07-31T11:22:33;0.00;;;0.00;;
58950;SDS011;44730;53.158;6.398;2023-07-31T11:25:00;0.13;;;0.13;;
58950;SDS011;44730;53.158;6.398;2023-07-31T11:27:30;0.20;;;0.20;;
58950;SDS011;44730;53.158;6.398;2023-07-31T11:30:02;0.10;;;0.10;;
58950;SDS011;44730;53.158;6.398;2023-07-31T11:32:28;0.10;;;0.10;;
58950;SDS011;44730;53.158;6.398;2023-07-31T11:34:54;0.10;;;0.10;;
58950;SDS011;44730;53.158;6.398;2023-07-31T11:37:21;0.32;;;0.20;;
58950;SDS011;44730;53.158;6.398;2023-07-31T11:39:59;0.10;;;0.10;;
58950;SDS011;44730;53.158;6.398;2023-07-31T11:42:27;0.00;;;0.00;;
58950;SDS011;44730;53.158;6.398;2023-07-31T11:44:53;0.00;;;0.00;;
58950;SDS011;44730;53.158;6.398;2023-07-31T11:47:19;0.28;;;0.15;;
58950;SDS011;44730;53.158;6.398;2023-07-31T11:49:46;0.00;;;0.00;;
58950;SDS011;44730;53.158;6.398;2023-07-31T11:52:12;0.00;;;0.00;;
58950;SDS011;44730;53.158;6.398;2023-07-31T11:54:39;0.43;;;0.35;;
58950;SDS011;44730;53.158;6.398;2023-07-31T11:57:05;0.10;;;0.05;;
58950;SDS011;44730;53.158;6.398;2023-07-31T11:59:31;0.73;;;0.52;;
58950;SDS011;44730;53.158;6.398;2023-07-31T12:01:57;0.30;;;0.30;;
58950;SDS011;44730;53.158;6.398;2023-07-31T12:04:24;0.55;;;0.52;;
58950;SDS011;44730;53.158;6.398;2023-07-31T12:06:52;0.32;;;0.32;;
58950;SDS011;44730;53.158;6.398;2023-07-31T12:09:18;1.60;;;0.20;;
58950;SDS011;44730;53.158;6.398;2023-07-31T12:11:45;0.00;;;0.00;;
58950;SDS011;44730;53.158;6.398;2023-07-31T12:14:22;0.20;;;0.20;;
58950;SDS011;44730;53.158;6.398;2023-07-31T12:16:55;0.22;;;0.22;;
58950;SDS011;44730;53.158;6.398;2023-07-31T12:19:25;0.00;;;0.00;;
58950;SDS011;44730;53.158;6.398;2023-07-31T12:21:55;0.03;;;0.03;;
58950;SDS011;44730;53.158;6.398;2023-07-31T12:24:21;0.10;;;0.10;;
58950;SDS011;44730;53.158;6.398;2023-07-31T12:26:47;0.00;;;0.00;;
58950;SDS011;44730;53.158;6.398;2023-07-31T12:29:14;0.40;;;0.30;;
58950;SDS011;44730;53.158;6.398;2023-07-31T12:31:41;0.10;;;0.10;;
58950;SDS011;44730;53.158;6.398;2023-07-31T12:34:15;0.00;;;0.00;;
58950;SDS011;44730;53.158;6.398;2023-07-31T12:36:42;0.10;;;0.10;;
58950;SDS011;44730;53.158;6.398;2023-07-31T12:39:09;0.13;;;0.13;;
58950;SDS011;44730;53.158;6.398;2023-07-31T12:41:35;0.00;;;0.00;;
58950;SDS011;44730;53.158;6.398;2023-07-31T12:44:02;0.47;;;0.47;;
58950;SDS011;44730;53.158;6.398;2023-07-31T12:46:28;0.00;;;0.00;;
58950;SDS011;44730;53.158;6.398;2023-07-31T12:48:54;0.10;;;0.10;;
58950;SDS011;44730;53.158;6.398;2023-07-31T12:51:21;0.20;;;0.20;;
58950;SDS011;44730;53.158;6.398;2023-07-31T12:53:47;0.00;;;0.00;;
58950;SDS011;44730;53.158;6.398;2023-07-31T12:56:13;0.90;;;0.40;;
58950;SDS011;44730;53.158;6.398;2023-07-31T12:58:39;0.70;;;0.55;;
58950;SDS011;44730;53.158;6.398;2023-07-31T13:01:05;6.32;;;0.38;;
58950;SDS011;44730;53.158;6.398;2023-07-31T13:03:31;0.15;;;0.15;;
58950;SDS011;44730;53.158;6.398;2023-07-31T13:05:58;0.43;;;0.43;;
58950;SDS011;44730;53.158;6.398;2023-07-31T13:08:24;0.00;;;0.00;;
58950;SDS011;44730;53.158;6.398;2023-07-31T13:10:50;0.10;;;0.10;;
58950;SDS011;44730;53.158;6.398;2023-07-31T13:13:17;0.15;;;0.10;;
58950;SDS011;44730;53.158;6.398;2023-07-31T13:15:43;0.65;;;0.65;;
58950;SDS011;44730;53.158;6.398;2023-07-31T13:18:10;0.22;;;0.22;;
58950;SDS011;44730;53.158;6.398;2023-07-31T13:20:36;1.90;;;0.75;;
58950;SDS011;44730;53.158;6.398;2023-07-31T13:23:02;0.20;;;0.20;;
58950;SDS011;44730;53.158;6.398;2023-07-31T13:25:28;0.20;;;0.20;;
58950;SDS011;44730;53.158;6.398;2023-07-31T13:27:54;0.75;;;0.50;;
58950;SDS011;44730;53.158;6.398;2023-07-31T13:30:21;0.32;;;0.32;;
58950;SDS011;44730;53.158;6.398;2023-07-31T13:32:47;0.40;;;0.40;;
58950;SDS011;44730;53.158;6.398;2023-07-31T13:35:13;0.22;;;0.17;;
58950;SDS011;44730;53.158;6.398;2023-07-31T13:37:39;0.55;;;0.55;;
58950;SDS011;44730;53.158;6.398;2023-07-31T13:40:05;0.20;;;0.20;;
58950;SDS011;44730;53.158;6.398;2023-07-31T13:42:32;0.77;;;0.77;;
58950;SDS011;44730;53.158;6.398;2023-07-31T13:44:58;0.75;;;0.55;;
58950;SDS011;44730;53.158;6.398;2023-07-31T13:47:24;0.40;;;0.40;;
58950;SDS011;44730;53.158;6.398;2023-07-31T13:49:51;0.93;;;0.73;;
58950;SDS011;44730;53.158;6.398;2023-07-31T13:52:17;0.32;;;0.32;;
58950;SDS011;44730;53.158;6.398;2023-07-31T13:54:43;0.70;;;0.47;;
58950;SDS011;44730;53.158;6.398;2023-07-31T13:57:10;1.10;;;0.95;;
58950;SDS011;44730;53.158;6.398;2023-07-31T13:59:36;1.27;;;0.57;;
58950;SDS011;44730;53.158;6.398;2023-07-31T14:02:02;0.00;;;0.00;;
58950;SDS011;44730;53.158;6.398;2023-07-31T14:04:28;0.45;;;0.28;;
58950;SDS011;44730;53.158;6.398;2023-07-31T14:06:55;0.70;;;0.47;;
58950;SDS011;44730;53.158;6.398;2023-07-31T14:09:21;0.30;;;0.10;;
58950;SDS011;44730;53.158;6.398;2023-07-31T14:11:47;0.88;;;0.80;;
58950;SDS011;44730;53.158;6.398;2023-07-31T14:14:13;2.08;;;0.95;;
58950;SDS011;44730;53.158;6.398;2023-07-31T14:16:40;0.28;;;0.28;;
58950;SDS011;44730;53.158;6.398;2023-07-31T14:19:06;0.50;;;0.25;;
58950;SDS011;44730;53.158;6.398;2023-07-31T14:21:33;0.17;;;0.17;;
58950;SDS011;44730;53.158;6.398;2023-07-31T14:23:59;0.60;;;0.60;;
58950;SDS011;44730;53.158;6.398;2023-07-31T14:26:26;0.10;;;0.10;;
58950;SDS011;44730;53.158;6.398;2023-07-31T14:28:52;0.10;;;0.10;;
58950;SDS011;44730;53.158;6.398;2023-07-31T14:31:18;0.47;;;0.47;;
58950;SDS011;44730;53.158;6.398;2023-07-31T14:33:44;0.28;;;0.28;;
58950;SDS011;44730;53.158;6.398;2023-07-31T14:36:10;0.63;;;0.60;;
58950;SDS011;44730;53.158;6.398;2023-07-31T14:38:36;0.77;;;0.77;;
58950;SDS011;44730;53.158;6.398;2023-07-31T14:41:02;0.40;;;0.40;;
58950;SDS011;44730;53.158;6.398;2023-07-31T14:43:29;0.20;;;0.20;;
58950;SDS011;44730;53.158;6.398;2023-07-31T14:45:55;0.20;;;0.20;;
58950;SDS011;44730;53.158;6.398;2023-07-31T14:48:24;0.47;;;0.47;;
58950;SDS011;44730;53.158;6.398;2023-07-31T14:50:50;0.38;;;0.32;;
58950;SDS011;44730;53.158;6.398;2023-07-31T14:53:16;0.43;;;0.43;;
58950;SDS011;44730;53.158;6.398;2023-07-31T14:55:42;0.47;;;0.47;;
58950;SDS011;44730;53.158;6.398;2023-07-31T14:58:09;0.40;;;0.40;;